Time;durP1;ratioP1;P1;durP2;ratioP2;P2;SDS_P1;SDS_P2;PMS_P1;PMS_P2;Temp;Humidity;BMP_temperature;BMP_pressure;BME280_temperature;BME280_humidity;BME280_pressure;Samples;Min_cycle;Max_cycle;Signal;HPM_P1;HPM_P2
2023/06/22 00:00:18;;;;;;;5.70;3.47;;;;;;;20.56;100.00;100939.06;676476;29;981;-56
2023/06/22 00:00:41;;;;;;;5.95;3.40;;;;;;;20.56;100.00;100931.09;676223;29;4627;-53
2023/06/22 00:01:02;;;;;;;5.63;3.10;;;;;;;20.54;100.00;100943.59;675929;29;1055;-58
2023/06/22 00:01:22;;;;;;;4.95;3.42;;;;;;;20.52;100.00;100938.34;674446;29;1443;-57
2023/06/22 00:01:43;;;;;;;5.78;3.50;;;;;;;20.53;100.00;100936.56;674360;29;974;-56
2023/06/22 00:02:03;;;;;;;5.27;3.50;;;;;;;20.52;100.00;100938.34;672962;29;2021;-56
2023/06/22 00:02:24;;;;;;;5.50;3.70;;;;;;;20.49;100.00;100937.59;675119;29;1406;-56
2023/06/22 00:02:44;;;;;;;4.95;3.72;;;;;;;20.50;100.00;100937.53;677198;29;865;-56
2023/06/22 00:03:04;;;;;;;4.97;3.67;;;;;;;20.53;100.00;100933.91;675156;29;1543;-57
2023/06/22 00:03:25;;;;;;;5.05;3.60;;;;;;;20.54;100.00;100940.94;677351;29;802;-56
2023/06/22 00:03:46;;;;;;;5.97;3.53;;;;;;;20.52;100.00;100935.69;676757;29;4704;-57
2023/06/22 00:04:06;;;;;;;6.25;3.55;;;;;;;20.52;100.00;100940.13;675447;29;1527;-56
2023/06/22 00:04:27;;;;;;;5.97;3.50;;;;;;;20.50;100.00;100940.19;676706;29;846;-57
2023/06/22 00:04:47;;;;;;;5.78;3.75;;;;;;;20.50;100.00;100942.00;677218;29;941;-56
2023/06/22 00:05:07;;;;;;;4.60;3.40;;;;;;;20.50;100.00;100934.88;674995;29;1881;-56
2023/06/22 00:05:28;;;;;;;6.13;3.30;;;;;;;20.49;100.00;100934.97;676569;29;1041;-57
2023/06/22 00:05:49;;;;;;;6.60;3.40;;;;;;;20.49;100.00;100933.19;674675;29;922;-56
2023/06/22 00:06:09;;;;;;;6.25;3.50;;;;;;;20.50;100.00;100936.69;671471;29;1560;-56
2023/06/22 00:06:30;;;;;;;5.82;3.70;;;;;;;20.51;100.00;100941.09;674518;29;953;-57
2023/06/22 00:06:50;;;;;;;6.00;3.60;;;;;;;20.49;100.00;100934.97;674003;29;4385;-57
2023/06/22 00:07:10;;;;;;;6.23;3.70;;;;;;;20.51;100.00;100938.44;672545;29;1564;-57
2023/06/22 00:07:31;;;;;;;6.45;3.78;;;;;;;20.51;100.00;100941.09;674830;29;871;-57
2023/06/22 00:07:51;;;;;;;4.90;3.20;;;;;;;20.53;100.00;100944.53;677317;29;901;-57
2023/06/22 00:08:12;;;;;;;5.90;3.40;;;;;;;20.56;100.00;100939.06;676207;29;945;-56
2023/06/22 00:08:32;;;;;;;5.30;3.63;;;;;;;20.59;100.00;100941.63;677058;29;924;-57
2023/06/22 00:08:52;;;;;;;4.93;3.53;;;;;;;20.64;100.00;100938.75;677284;29;1270;-55
2023/06/22 00:09:13;;;;;;;4.47;3.10;;;;;;;20.63;100.00;100942.34;676007;29;1469;-56
2023/06/22 00:09:33;;;;;;;5.03;3.20;;;;;;;20.60;100.00;100943.34;677208;29;960;-57
2023/06/22 00:09:54;;;;;;;5.68;3.50;;;;;;;20.57;100.00;100943.47;676836;29;5517;-56
2023/06/22 00:10:14;;;;;;;6.47;3.70;;;;;;;20.57;100.00;100948.78;676112;29;1535;-56
2023/06/22 00:10:35;;;;;;;6.00;3.60;;;;;;;20.55;100.00;100937.38;676921;29;1251;-57
2023/06/22 00:10:55;;;;;;;5.03;3.50;;;;;;;20.56;100.00;100941.72;677380;29;898;-57
2023/06/22 00:11:15;;;;;;;5.95;3.80;;;;;;;20.60;100.00;100943.34;675063;29;1485;-56
2023/06/22 00:11:36;;;;;;;5.60;3.53;;;;;;;20.59;100.00;100938.97;676820;29;874;-57
2023/06/22 00:11:57;;;;;;;4.85;3.25;;;;;;;20.57;100.00;100938.16;676967;29;1094;-57
2023/06/22 00:12:17;;;;;;;5.00;3.28;;;;;;;20.57;100.00;100941.69;675192;29;1515;-57
2023/06/22 00:12:37;;;;;;;5.27;3.50;;;;;;;20.55;100.00;100942.69;676132;29;1200;-57
2023/06/22 00:12:58;;;;;;;5.30;3.57;;;;;;;20.57;100.00;100940.81;676790;29;5245;-57
2023/06/22 00:13:18;;;;;;;5.40;3.50;;;;;;;20.59;100.00;100938.97;675763;29;1741;-57
2023/06/22 00:13:39;;;;;;;5.37;3.27;;;;;;;20.57;100.00;100933.72;676488;29;1192;-56
2023/06/22 00:14:00;;;;;;;5.72;3.38;;;;;;;20.59;100.00;100938.97;675944;29;1177;-57
2023/06/22 00:14:20;;;;;;;5.83;3.50;;;;;;;20.58;100.00;100939.88;676047;29;1642;-56
2023/06/22 00:14:40;;;;;;;5.28;3.58;;;;;;;20.57;100.00;100932.84;676773;29;878;-56
2023/06/22 00:15:01;;;;;;;4.43;3.23;;;;;;;20.55;100.00;100934.72;677203;29;890;-56
2023/06/22 00:15:21;;;;;;;5.33;3.53;;;;;;;20.54;100.00;100932.97;675795;29;1522;-56
2023/06/22 00:15:42;;;;;;;4.88;3.40;;;;;;;20.54;100.00;100939.13;675888;29;4558;-57
2023/06/22 00:16:02;;;;;;;5.70;3.42;;;;;;;20.53;100.00;100932.13;677292;29;905;-57
2023/06/22 00:16:23;;;;;;;5.40;3.40;;;;;;;20.59;100.00;100936.31;675331;29;3437;-55
2023/06/22 00:16:43;;;;;;;5.55;3.20;;;;;;;20.56;100.00;100936.41;676592;29;910;-57
2023/06/22 00:17:04;;;;;;;5.10;3.40;;;;;;;20.57;100.00;100933.72;675782;29;1772;-56
2023/06/22 00:17:24;;;;;;;4.93;3.40;;;;;;;20.56;100.00;100931.09;676941;29;1293;-56
2023/06/22 00:17:47;;;;;;;5.25;3.53;;;;;;;20.61;100.00;100933.59;676474;29;790;-56
2023/06/22 00:18:09;;;;;;;5.47;3.72;;;;;;;20.59;100.00;100933.66;675606;29;964;-56
2023/06/22 00:18:30;;;;;;;5.28;3.42;;;;;;;20.58;100.00;100937.22;676906;29;903;-57
2023/06/22 00:18:50;;;;;;;4.55;3.30;;;;;;;20.56;100.00;100931.09;675320;29;4642;-56
2023/06/22 00:19:11;;;;;;;5.10;3.47;;;;;;;20.55;100.00;100937.38;676096;29;964;-56
2023/06/22 00:19:35;;;;;;;5.45;3.75;;;;;;;20.53;100.00;100931.25;676913;29;862;-57
2023/06/22 00:19:58;;;;;;;5.45;3.70;;;;;;;20.52;100.00;100930.41;676634;29;977;-56
2023/06/22 00:20:18;;;;;;;5.78;3.58;;;;;;;20.51;100.00;100933.13;676074;29;1464;-56
2023/06/22 00:20:39;;;;;;;5.70;3.70;;;;;;;20.52;100.00;100934.81;676994;29;1205;-56
2023/06/22 00:21:00;;;;;;;6.35;3.78;;;;;;;20.51;100.00;100933.97;676918;29;925;-56
2023/06/22 00:21:20;;;;;;;6.30;3.60;;;;;;;20.50;100.00;100936.69;675727;29;1539;-57
2023/06/22 00:21:42;;;;;;;5.43;3.77;;;;;;;20.54;100.00;100941.81;676403;29;4588;-57
2023/06/22 00:22:03;;;;;;;5.55;3.40;;;;;;;20.64;100.00;100934.31;676550;29;1989;-57
2023/06/22 00:22:28;;;;;;;4.40;3.05;;;;;;;20.63;100.00;100935.25;676463;29;998;-56
2023/06/22 00:22:49;;;;;;;4.80;3.40;;;;;;;20.63;100.00;100934.38;677396;29;957;-57
2023/06/22 00:23:09;;;;;;;6.68;3.50;;;;;;;20.62;100.00;100930.00;675983;29;1488;-56
2023/06/22 00:23:33;;;;;;;6.37;3.37;;;;;;;20.61;100.00;100933.59;677025;29;1223;-56
2023/06/22 00:23:54;;;;;;;5.28;3.42;;;;;;;20.59;100.00;100934.50;676348;29;1435;-57
2023/06/22 00:24:16;;;;;;;4.53;3.30;;;;;;;20.59;100.00;100928.34;675818;29;1480;-56
2023/06/22 00:24:37;;;;;;;4.90;3.38;;;;;;;20.59;100.00;100931.00;676775;29;834;-56
2023/06/22 00:24:57;;;;;;;4.43;3.28;;;;;;;20.58;100.00;100924.81;676635;29;4322;-56
2023/06/22 00:25:17;;;;;;;4.67;3.30;;;;;;;20.60;100.00;100930.06;674476;29;1523;-57
2023/06/22 00:25:41;;;;;;;4.70;3.10;;;;;;;20.61;100.00;100934.44;674441;29;990;-56
2023/06/22 00:26:02;;;;;;;5.00;3.17;;;;;;;20.59;100.00;100928.34;674285;29;889;-56
2023/06/22 00:26:23;;;;;;;5.72;3.50;;;;;;;20.59;100.00;100931.00;672916;29;1524;-57
2023/06/22 00:26:43;;;;;;;5.70;3.65;;;;;;;20.60;100.00;100932.69;674608;29;1251;-57
2023/06/22 00:27:05;;;;;;;5.40;3.63;;;;;;;20.64;100.00;100929.00;672963;29;1716;-57
2023/06/22 00:27:26;;;;;;;4.95;3.60;;;;;;;20.62;100.00;100925.56;673915;29;998;-56
2023/06/22 00:27:46;;;;;;;5.00;3.40;;;;;;;20.66;100.00;100927.16;674763;29;4529;-57
2023/06/22 00:28:07;;;;;;;5.73;3.40;;;;;;;20.66;100.00;100935.13;673608;29;1465;-56
2023/06/22 00:28:29;;;;;;;5.03;3.38;;;;;;;20.66;100.00;100934.28;673598;29;1273;-56
2023/06/22 00:28:49;;;;;;;5.03;3.60;;;;;;;20.64;100.00;100933.44;674915;29;844;-56
2023/06/22 00:29:09;;;;;;;6.03;3.40;;;;;;;20.62;100.00;100930.88;669812;29;1797;-56
2023/06/22 00:29:30;;;;;;;5.88;3.40;;;;;;;20.63;100.00;100931.72;671555;29;969;-57
2023/06/22 00:29:50;;;;;;;5.40;3.40;;;;;;;20.64;100.00;100936.97;671780;29;1329;-56
2023/06/22 00:30:11;;;;;;;5.35;3.50;;;;;;;20.61;100.00;100931.78;664125;29;1533;-56
2023/06/22 00:30:32;;;;;;;5.20;3.30;;;;;;;20.62;100.00;100930.88;667282;29;847;-56
2023/06/22 00:30:52;;;;;;;5.15;3.13;;;;;;;20.60;100.00;100932.69;667952;29;4559;-56
2023/06/22 00:31:13;;;;;;;5.65;3.35;;;;;;;20.62;100.00;100940.63;667307;29;1621;-57
2023/06/22 00:31:36;;;;;;;5.75;3.40;;;;;;;20.62;100.00;100937.97;667718;29;875;-56
2023/06/22 00:31:56;;;;;;;5.18;3.35;;;;;;;20.62;100.00;100933.53;668807;29;1554;-57
2023/06/22 00:32:17;;;;;;;4.90;3.45;;;;;;;20.62;100.00;100940.63;668752;29;878;-57
2023/06/22 00:32:40;;;;;;;5.20;4.00;;;;;;;20.63;100.00;100937.91;667780;29;1258;-56
2023/06/22 00:33:01;;;;;;;5.57;3.65;;;;;;;20.64;100.00;100939.63;669644;29;883;-56
2023/06/22 00:33:22;;;;;;;5.00;3.45;;;;;;;20.64;100.00;100938.75;670369;29;1541;-56
2023/06/22 00:33:42;;;;;;;5.20;3.38;;;;;;;20.64;100.00;100942.28;670819;29;4474;-57
2023/06/22 00:34:03;;;;;;;5.37;3.23;;;;;;;20.67;100.00;100938.63;672650;29;886;-56
2023/06/22 00:34:23;;;;;;;5.33;3.47;;;;;;;20.68;100.00;100941.25;673214;29;1448;-57
2023/06/22 00:34:45;;;;;;;6.03;3.58;;;;;;;20.69;100.00;100944.78;673715;29;1325;-57
2023/06/22 00:35:06;;;;;;;5.45;3.25;;;;;;;20.68;100.00;100941.25;672731;29;1467;-57
2023/06/22 00:35:30;;;;;;;5.28;3.30;;;;;;;20.68;100.00;100940.41;674877;29;1312;-57
2023/06/22 00:35:52;;;;;;;5.20;3.35;;;;;;;20.68;100.00;100945.72;677285;29;1128;-56
2023/06/22 00:36:16;;;;;;;4.68;3.40;;;;;;;20.69;100.00;100942.97;672443;29;1533;-56
2023/06/22 00:36:36;;;;;;;4.55;3.20;;;;;;;20.74;100.00;100946.31;673877;29;852;-57
2023/06/22 00:36:59;;;;;;;5.40;3.40;;;;;;;20.73;100.00;100941.91;674224;29;4513;-56
2023/06/22 00:37:22;;;;;;;5.45;3.33;;;;;;;20.74;100.00;100945.44;672455;29;1724;-56
2023/06/22 00:37:45;;;;;;;5.80;3.20;;;;;;;20.72;100.00;100942.84;673958;29;1137;-56
2023/06/22 00:38:05;;;;;;;5.07;3.20;;;;;;;20.72;100.00;100939.34;674259;29;991;-56
2023/06/22 00:38:25;;;;;;;4.77;3.20;;;;;;;20.73;100.00;100943.72;676300;29;1328;-56
2023/06/22 00:38:46;;;;;;;5.33;3.10;;;;;;;20.73;100.00;100947.22;674601;29;5334;-57
2023/06/22 00:39:07;;;;;;;5.57;3.10;;;;;;;20.72;100.00;100947.31;675624;29;1713;-57
2023/06/22 00:39:27;;;;;;;4.95;3.13;;;;;;;20.73;100.00;100949.03;674511;29;2029;-56
2023/06/22 00:39:48;;;;;;;5.70;3.57;;;;;;;20.72;100.00;100942.84;671502;29;4631;-57
2023/06/22 00:40:11;;;;;;;5.57;3.47;;;;;;;20.75;100.00;100941.84;667206;29;1561;-57
2023/06/22 00:40:33;;;;;;;4.78;3.00;;;;;;;20.77;100.00;100945.31;669340;29;2043;-56
2023/06/22 00:40:53;;;;;;;4.57;2.90;;;;;;;20.77;100.00;100942.66;667745;29;1194;-56
2023/06/22 00:41:14;;;;;;;4.78;3.00;;;;;;;20.74;100.00;100941.00;666946;29;1533;-56
2023/06/22 00:41:36;;;;;;;4.30;3.03;;;;;;;20.74;100.00;100948.09;670164;29;1242;-56
2023/06/22 00:41:59;;;;;;;5.25;3.53;;;;;;;20.73;100.00;100944.56;671757;29;1966;-55
2023/06/22 00:42:19;;;;;;;5.63;3.42;;;;;;;20.74;100.00;100946.31;670938;29;1494;-56
2023/06/22 00:42:41;;;;;;;5.00;3.28;;;;;;;20.74;100.00;100938.34;676122;29;4454;-57
2023/06/22 00:43:02;;;;;;;5.35;3.33;;;;;;;20.73;100.00;100943.72;674787;29;981;-56
2023/06/22 00:43:25;;;;;;;5.13;3.55;;;;;;;20.73;100.00;100943.72;674466;29;1233;-56
2023/06/22 00:43:45;;;;;;;4.82;3.40;;;;;;;20.73;100.00;100944.56;675553;29;806;-56
2023/06/22 00:44:06;;;;;;;5.03;3.30;;;;;;;20.78;100.00;100943.50;675106;29;1484;-57
2023/06/22 00:44:27;;;;;;;5.03;3.20;;;;;;;20.80;100.00;100939.00;676781;29;1037;-56
2023/06/22 00:44:47;;;;;;;5.50;3.10;;;;;;;20.78;100.00;100947.03;676689;29;877;-56
2023/06/22 00:45:08;;;;;;;5.47;3.10;;;;;;;20.78;100.00;100948.81;674560;29;1340;-57
2023/06/22 00:45:28;;;;;;;5.55;3.08;;;;;;;20.77;100.00;100944.44;674373;29;986;-57
2023/06/22 00:45:49;;;;;;;5.15;3.30;;;;;;;20.76;100.00;100938.28;674544;29;4491;-56
2023/06/22 00:46:11;;;;;;;5.20;3.28;;;;;;;20.75;100.00;100948.03;673195;29;1512;-56
2023/06/22 00:46:32;;;;;;;4.40;3.08;;;;;;;20.74;100.00;100943.66;672075;29;1273;-57
2023/06/22 00:46:53;;;;;;;4.85;3.30;;;;;;;20.77;100.00;100941.78;672450;29;881;-57
2023/06/22 00:47:17;;;;;;;4.78;3.30;;;;;;;20.77;100.00;100942.66;672596;29;1683;-56
2023/06/22 00:47:38;;;;;;;5.22;3.60;;;;;;;20.79;100.00;100942.59;675695;29;1213;-56
2023/06/22 00:47:59;;;;;;;4.77;3.20;;;;;;;20.82;100.00;100939.81;675817;29;1571;-57
2023/06/22 00:48:22;;;;;;;4.57;3.20;;;;;;;20.81;100.00;100944.25;673862;29;2062;-57
2023/06/22 00:48:43;;;;;;;4.78;3.10;;;;;;;20.80;100.00;100939.88;672261;29;4698;-56
2023/06/22 00:49:05;;;;;;;5.00;3.47;;;;;;;20.81;100.00;100938.94;670983;29;1995;-56
2023/06/22 00:49:25;;;;;;;4.80;3.20;;;;;;;20.84;100.00;100945.94;670229;29;1045;-56
2023/06/22 00:49:48;;;;;;;4.95;3.40;;;;;;;20.83;100.00;100944.19;669215;29;1282;-57
2023/06/22 00:50:11;;;;;;;5.47;3.50;;;;;;;20.82;100.00;100937.16;665132;29;1497;-56
2023/06/22 00:50:33;;;;;;;5.22;3.22;;;;;;;20.82;100.00;100942.47;669937;29;858;-56
2023/06/22 00:50:55;;;;;;;5.25;3.40;;;;;;;20.83;100.00;100941.53;671950;29;1350;-57
2023/06/22 00:51:17;;;;;;;4.55;3.05;;;;;;;20.86;100.00;100941.41;669877;29;1800;-56
2023/06/22 00:51:45;;;;;;;5.13;3.10;;;;;;;20.84;100.00;100940.63;674657;29;4469;-56
2023/06/22 00:52:13;;;;;;;6.43;3.15;;;;;;;20.82;100.00;100942.47;676619;29;1119;-55
2023/06/22 00:52:35;;;;;;;5.20;3.10;;;;;;;20.83;100.00;100938.88;675316;29;909;-57
2023/06/22 00:52:58;;;;;;;4.65;2.95;;;;;;;20.84;100.00;100940.63;675592;29;1592;-57
2023/06/22 00:53:19;;;;;;;5.10;3.30;;;;;;;20.83;100.00;100934.41;675210;29;2053;-57
2023/06/22 00:53:40;;;;;;;5.22;3.40;;;;;;;20.83;100.00;100938.88;673145;29;961;-56
2023/06/22 00:54:01;;;;;;;4.80;3.10;;;;;;;20.82;100.00;100934.47;673489;29;1618;-57
2023/06/22 00:54:24;;;;;;;5.18;3.10;;;;;;;20.80;100.00;100933.69;675784;29;1166;-57
2023/06/22 00:54:45;;;;;;;5.70;3.40;;;;;;;20.78;100.00;100931.09;674196;29;4413;-56
2023/06/22 00:55:06;;;;;;;5.03;3.35;;;;;;;20.78;100.00;100931.09;671887;29;1619;-57
2023/06/22 00:55:28;;;;;;;4.97;3.42;;;;;;;20.78;100.00;100928.44;668430;29;960;-57
2023/06/22 00:55:51;;;;;;;5.80;3.75;;;;;;;20.77;100.00;100934.69;669480;29;1388;-56
2023/06/22 00:56:12;;;;;;;4.80;3.17;;;;;;;20.77;100.00;100939.13;669607;29;1155;-57
2023/06/22 00:56:32;;;;;;;4.50;3.22;;;;;;;20.75;100.00;100932.09;671942;29;1187;-57
2023/06/22 00:56:57;;;;;;;4.53;3.10;;;;;;;20.75;100.00;100937.41;672275;29;826;-57
2023/06/22 00:57:18;;;;;;;5.15;3.10;;;;;;;20.74;100.00;100933.03;675289;29;901;-56
2023/06/22 00:57:39;;;;;;;5.00;3.17;;;;;;;20.74;100.00;100941.00;679254;29;4374;-56
2023/06/22 00:58:00;;;;;;;4.45;3.05;;;;;;;20.74;100.00;100940.13;678934;29;1300;-56
2023/06/22 00:58:21;;;;;;;5.40;3.50;;;;;;;20.75;100.00;100936.53;676231;29;1531;-56
2023/06/22 00:58:42;;;;;;;5.43;3.30;;;;;;;20.74;100.00;100937.47;677069;29;843;-57
2023/06/22 00:59:03;;;;;;;5.78;3.42;;;;;;;20.78;100.00;100932.88;674688;29;842;-57
2023/06/22 00:59:26;;;;;;;5.10;3.50;;;;;;;20.83;100.00;100929.09;673143;29;1457;-56
2023/06/22 00:59:48;;;;;;;4.13;2.92;;;;;;;20.83;100.00;100933.56;673643;29;1030;-55
2023/06/22 01:00:10;;;;;;;4.90;3.00;;;;;;;20.81;100.00;100930.09;673959;29;2730;-56
2023/06/22 01:00:32;;;;;;;5.07;3.15;;;;;;;20.79;100.00;100932.81;676444;29;1582;-57
2023/06/22 01:00:54;;;;;;;4.90;3.30;;;;;;;20.79;100.00;100937.28;669829;29;4422;-56
2023/06/22 01:01:15;;;;;;;4.45;3.10;;;;;;;20.78;100.00;100938.19;672049;29;1841;-57
2023/06/22 01:01:40;;;;;;;5.20;3.22;;;;;;;20.78;100.00;100932.88;674447;29;979;-57
2023/06/22 01:02:01;;;;;;;4.97;3.30;;;;;;;20.78;100.00;100940.84;674300;29;2016;-57
2023/06/22 01:02:21;;;;;;;5.07;3.30;;;;;;;20.77;100.00;100936.47;673890;29;1473;-56
2023/06/22 01:02:45;;;;;;;4.80;3.30;;;;;;;20.84;100.00;100935.31;673237;29;1713;-57
2023/06/22 01:03:08;;;;;;;6.22;3.20;;;;;;;20.87;100.00;100936.00;672210;29;1610;-57
2023/06/22 01:03:29;;;;;;;5.63;3.10;;;;;;;20.84;100.00;100937.97;671816;29;1568;-56
2023/06/22 01:03:51;;;;;;;5.28;3.00;;;;;;;20.83;100.00;100941.53;671873;29;4442;-57
2023/06/22 01:04:11;;;;;;;5.03;3.08;;;;;;;20.80;100.00;100937.22;671100;29;1501;-57
2023/06/22 01:04:37;;;;;;;4.70;2.90;;;;;;;20.79;100.00;100935.47;671939;29;1114;-57
2023/06/22 01:04:58;;;;;;;4.57;3.05;;;;;;;20.78;100.00;100933.75;672956;29;942;-56
2023/06/22 01:05:19;;;;;;;4.65;2.90;;;;;;;20.77;100.00;100936.47;672784;29;1375;-56
2023/06/22 01:05:40;;;;;;;4.97;3.05;;;;;;;20.77;100.00;100936.47;672167;29;803;-56
2023/06/22 01:06:09;;;;;;;5.90;3.27;;;;;;;20.75;100.00;100936.53;673221;29;873;-57
2023/06/22 01:06:37;;;;;;;5.85;3.38;;;;;;;20.75;100.00;100939.19;673190;29;1250;-57
2023/06/22 01:07:12;;;;;;;4.75;3.33;;;;;;;20.74;100.00;100942.78;674829;29;4624;-56
2023/06/22 01:07:41;;;;;;;4.95;3.10;;;;;;;20.73;100.00;100935.75;674227;29;945;-57
2023/06/22 01:08:38;;;;;;;5.25;3.20;;;;;;;20.73;100.00;100943.72;672510;29;1427;-57
2023/06/22 01:09:38;;;;;;;5.13;3.10;;;;;;;20.74;100.00;100941.00;674487;29;944;-57
2023/06/22 01:10:21;;;;;;;5.80;3.20;;;;;;;20.75;100.00;100942.72;666950;29;5082;-57
2023/06/22 01:10:47;;;;;;;4.60;3.03;;;;;;;20.74;100.00;100941.00;669375;29;1294;-57
2023/06/22 01:11:13;;;;;;;4.72;2.83;;;;;;;20.73;100.00;100939.25;670612;29;1028;-57
2023/06/22 01:11:45;;;;;;;4.57;3.03;;;;;;;20.74;100.00;100937.47;671974;29;772;-56
2023/06/22 01:12:08;;;;;;;4.97;3.30;;;;;;;20.72;100.00;100936.69;677448;29;984;-56
2023/06/22 01:12:38;;;;;;;5.43;3.10;;;;;;;20.72;100.00;100937.53;672505;29;3545;-57
2023/06/22 01:13:16;;;;;;;4.85;3.03;;;;;;;20.72;100.00;100937.53;675241;29;4918;-57
2023/06/22 01:13:52;;;;;;;5.10;3.60;;;;;;;20.72;100.00;100931.38;676284;29;1165;-57
2023/06/22 01:14:23;;;;;;;4.80;3.13;;;;;;;20.70;100.00;100939.41;671941;29;2198;-57
2023/06/22 01:14:53;;;;;;;5.35;3.08;;;;;;;20.69;100.00;100937.66;671586;29;1172;-57
2023/06/22 01:15:21;;;;;;;5.30;3.30;;;;;;;20.70;100.00;100934.09;670293;29;953;-56
2023/06/22 01:16:01;;;;;;;4.65;3.22;;;;;;;20.76;100.00;100935.63;673697;29;4567;-56
2023/06/22 01:16:28;;;;;;;4.60;3.33;;;;;;;20.75;100.00;100937.41;672756;29;1586;-57
2023/06/22 01:16:50;;;;;;;4.78;3.35;;;;;;;20.73;100.00;100933.94;673729;29;953;-57
2023/06/22 01:17:16;;;;;;;5.65;3.05;;;;;;;20.73;100.00;100933.94;670775;29;1560;-55
2023/06/22 01:17:41;;;;;;;4.73;3.03;;;;;;;20.75;100.00;100934.78;669098;29;1283;-57
2023/06/22 01:18:07;;;;;;;6.00;3.17;;;;;;;20.75;100.00;100936.53;669232;29;815;-56
2023/06/22 01:18:30;;;;;;;5.60;3.00;;;;;;;20.73;100.00;100927.78;672374;29;846;-57
2023/06/22 01:18:54;;;;;;;4.70;3.05;;;;;;;20.73;100.00;100936.59;671508;29;4536;-56
2023/06/22 01:19:27;;;;;;;4.80;3.00;;;;;;;20.72;100.00;100932.22;672459;29;1673;-57
2023/06/22 01:19:55;;;;;;;5.15;3.20;;;;;;;20.73;100.00;100933.09;675995;29;1008;-57
2023/06/22 01:20:16;;;;;;;4.40;3.08;;;;;;;20.73;100.00;100933.94;673808;29;1511;-57
2023/06/22 01:20:38;;;;;;;4.85;3.03;;;;;;;20.71;100.00;100933.16;675976;29;775;-56
2023/06/22 01:21:02;;;;;;;4.72;3.22;;;;;;;20.69;100.00;100932.34;673256;29;1418;-57
2023/06/22 01:21:28;;;;;;;4.50;3.08;;;;;;;20.69;100.00;100929.69;672543;29;1612;-56
2023/06/22 01:21:51;;;;;;;4.70;2.90;;;;;;;20.68;100.00;100938.59;673647;29;4434;-57
2023/06/22 01:22:15;;;;;;;4.50;2.90;;;;;;;20.68;100.00;100935.94;673756;29;1960;-56
2023/06/22 01:22:59;;;;;;;5.05;2.90;;;;;;;20.68;100.00;100933.28;676873;29;1394;-57
2023/06/22 01:23:39;;;;;;;5.45;3.10;;;;;;;20.67;100.00;100934.19;673555;29;2305;-56
2023/06/22 01:24:14;;;;;;;4.57;2.83;;;;;;;20.66;100.00;100934.28;674402;29;1367;-56
2023/06/22 01:24:50;;;;;;;4.85;2.92;;;;;;;20.63;100.00;100927.28;674264;29;973;-57
2023/06/22 01:25:20;;;;;;;4.50;3.17;;;;;;;20.62;100.00;100937.97;669370;29;4972;-57
2023/06/22 01:25:43;;;;;;;4.60;3.13;;;;;;;20.61;100.00;100929.13;671704;29;1292;-57
2023/06/22 01:26:22;;;;;;;4.30;3.03;;;;;;;20.60;100.00;100930.06;676335;29;1462;-57
2023/06/22 01:27:09;;;;;;;5.15;2.95;;;;;;;20.59;100.00;100931.84;674854;29;856;-57
2023/06/22 01:28:07;;;;;;;4.40;2.90;;;;;;;20.56;100.00;100926.69;668553;29;1334;-56
2023/06/22 01:28:46;;;;;;;4.72;3.10;;;;;;;20.57;100.00;100924.88;678235;29;5096;-57
2023/06/22 01:29:11;;;;;;;5.45;3.20;;;;;;;20.58;100.00;100926.63;678423;29;1386;-58
2023/06/22 01:29:33;;;;;;;5.43;3.25;;;;;;;20.60;100.00;100922.09;678449;29;1092;-57
2023/06/22 01:30:00;;;;;;;5.90;3.40;;;;;;;20.59;100.00;100923.88;678439;29;756;-56
2023/06/22 01:30:20;;;;;;;5.05;3.20;;;;;;;20.59;100.00;100926.53;675931;29;1566;-57
2023/06/22 01:30:45;;;;;;;4.75;3.10;;;;;;;20.60;100.00;100922.09;676166;29;4587;-56
2023/06/22 01:31:08;;;;;;;4.70;3.30;;;;;;;20.59;100.00;100925.69;676758;29;934;-56
2023/06/22 01:31:32;;;;;;;6.40;3.50;;;;;;;20.59;100.00;100923.03;677295;29;858;-57
2023/06/22 01:31:56;;;;;;;5.10;3.22;;;;;;;20.58;100.00;100924.81;677127;29;831;-57
2023/06/22 01:32:16;;;;;;;4.82;3.35;;;;;;;20.59;100.00;100925.69;675122;29;1636;-56
2023/06/22 01:32:38;;;;;;;4.85;3.13;;;;;;;20.58;100.00;100922.16;676472;29;1170;-57
2023/06/22 01:33:01;;;;;;;4.85;3.33;;;;;;;20.58;100.00;100927.47;674790;29;1178;-57
2023/06/22 01:33:22;;;;;;;6.10;3.70;;;;;;;20.58;100.00;100927.47;672881;29;1559;-57
2023/06/22 01:33:46;;;;;;;5.20;3.20;;;;;;;20.58;100.00;100927.47;671116;29;4387;-56
2023/06/22 01:34:08;;;;;;;6.05;3.53;;;;;;;20.61;100.00;100923.81;667848;29;1513;-56
2023/06/22 01:34:31;;;;;;;5.25;3.30;;;;;;;20.64;100.00;100928.13;669231;29;933;-57
2023/06/22 01:34:52;;;;;;;5.32;3.55;;;;;;;20.63;100.00;100924.63;670593;29;1021;-57
2023/06/22 01:35:14;;;;;;;5.63;3.40;;;;;;;20.62;100.00;100922.91;673355;29;905;-57
2023/06/22 01:35:35;;;;;;;5.03;3.40;;;;;;;20.62;100.00;100928.22;673235;29;918;-57
2023/06/22 01:35:55;;;;;;;4.97;3.10;;;;;;;20.62;100.00;100924.69;675889;29;1458;-56
2023/06/22 01:36:18;;;;;;;6.10;3.20;;;;;;;20.62;100.00;100925.56;673267;29;1355;-57
2023/06/22 01:36:41;;;;;;;5.95;3.25;;;;;;;20.61;100.00;100926.47;673414;29;4545;-56
2023/06/22 01:37:02;;;;;;;5.70;3.85;;;;;;;20.62;100.00;100922.91;674609;29;796;-56
2023/06/22 01:37:24;;;;;;;5.82;3.63;;;;;;;20.64;100.00;100918.38;673315;29;1571;-57
2023/06/22 01:37:46;;;;;;;5.10;3.10;;;;;;;20.63;100.00;100918.44;675526;29;892;-56
2023/06/22 01:38:08;;;;;;;4.95;3.17;;;;;;;20.62;100.00;100922.03;676710;29;2910;-59
2023/06/22 01:38:29;;;;;;;4.43;3.00;;;;;;;20.61;100.00;100918.50;672635;29;1323;-57
2023/06/22 01:38:52;;;;;;;4.93;3.00;;;;;;;20.59;100.00;100917.72;669426;29;5265;-56
2023/06/22 01:39:13;;;;;;;5.18;3.40;;;;;;;20.59;100.00;100923.03;669059;29;1617;-57
2023/06/22 01:39:35;;;;;;;5.63;3.33;;;;;;;20.57;100.00;100916.91;672353;29;1371;-57
2023/06/22 01:39:56;;;;;;;5.10;3.05;;;;;;;20.56;100.00;100915.19;675835;29;4385;-57
2023/06/22 01:40:19;;;;;;;5.05;2.90;;;;;;;20.55;100.00;100916.13;674553;29;1663;-56
2023/06/22 01:40:42;;;;;;;4.70;3.20;;;;;;;20.54;100.00;100917.03;675740;29;815;-55
2023/06/22 01:41:03;;;;;;;4.50;3.30;;;;;;;20.54;100.00;100917.03;676807;29;1228;-58
2023/06/22 01:41:26;;;;;;;5.22;3.15;;;;;;;20.53;100.00;100916.19;675177;29;1472;-57
2023/06/22 01:41:47;;;;;;;4.60;3.00;;;;;;;20.54;100.00;100914.38;677028;29;889;-57
2023/06/22 01:42:11;;;;;;;5.07;3.10;;;;;;;20.53;100.00;100915.31;677353;29;1916;-57
2023/06/22 01:42:36;;;;;;;5.43;3.10;;;;;;;20.52;100.00;100914.47;677727;29;925;-57
2023/06/22 01:42:57;;;;;;;5.68;3.40;;;;;;;20.51;100.00;100918.03;677083;29;4390;-57
2023/06/22 01:43:18;;;;;;;4.97;3.28;;;;;;;20.50;100.00;100908.34;675922;29;1657;-57
2023/06/22 01:43:39;;;;;;;4.10;2.90;;;;;;;20.50;100.00;100912.78;677151;29;988;-56
2023/06/22 01:44:01;;;;;;;4.93;3.10;;;;;;;20.48;100.00;100910.22;677229;29;1004;-57
2023/06/22 01:44:21;;;;;;;4.72;2.95;;;;;;;20.49;100.00;100908.41;673618;29;1523;-57
2023/06/22 01:44:45;;;;;;;4.50;2.80;;;;;;;20.49;100.00;100908.41;674486;29;906;-57
2023/06/22 01:45:07;;;;;;;5.00;3.00;;;;;;;20.49;100.00;100908.41;674001;29;1160;-56
2023/06/22 01:45:27;;;;;;;4.63;3.13;;;;;;;20.50;100.00;100907.47;673316;29;1403;-56
2023/06/22 01:45:48;;;;;;;4.43;3.20;;;;;;;20.50;100.00;100910.13;671715;29;4641;-57
2023/06/22 01:46:09;;;;;;;4.80;3.40;;;;;;;20.48;100.00;100904.00;670191;29;1659;-57
2023/06/22 01:46:30;;;;;;;5.18;3.25;;;;;;;20.47;100.00;100908.47;672764;29;905;-56
2023/06/22 01:46:52;;;;;;;5.40;3.40;;;;;;;20.47;100.00;100904.97;674519;29;882;-56
2023/06/22 01:47:13;;;;;;;5.18;3.13;;;;;;;20.46;100.00;100909.38;675231;29;1605;-57
2023/06/22 01:47:34;;;;;;;4.63;3.15;;;;;;;20.47;100.00;100911.13;677313;29;1252;-57
2023/06/22 01:47:55;;;;;;;4.70;2.90;;;;;;;20.47;100.00;100907.63;677075;29;826;-57
2023/06/22 01:48:15;;;;;;;4.93;3.03;;;;;;;20.46;100.00;100913.84;676020;29;1463;-56
2023/06/22 01:48:35;;;;;;;4.53;3.20;;;;;;;20.47;100.00;100905.81;677170;29;865;-57
2023/06/22 01:48:56;;;;;;;4.32;3.10;;;;;;;20.46;100.00;100904.09;674490;29;4301;-56
2023/06/22 01:49:17;;;;;;;4.60;3.10;;;;;;;20.46;100.00;100908.53;675383;29;1487;-57